sensor_id;sensor_type;location;lat;lon;timestamp;temperature;humidity
14079;DHT22;7115;50.150;8.568;2023-03-14T00:01:23;11.60;99.90
14079;DHT22;7115;50.150;8.568;2023-03-14T00:03:50;11.70;99.90
14079;DHT22;7115;50.150;8.568;2023-03-14T00:06:18;11.70;99.90
14079;DHT22;7115;50.150;8.568;2023-03-14T00:08:45;11.60;99.90
14079;DHT22;7115;50.150;8.568;2023-03-14T00:11:15;11.60;99.90
14079;DHT22;7115;50.150;8.568;2023-03-14T00:13:42;11.60;99.90
14079;DHT22;7115;50.150;8.568;2023-03-14T00:16:11;11.60;99.90
14079;DHT22;7115;50.150;8.568;2023-03-14T00:18:39;11.50;99.90
14079;DHT22;7115;50.150;8.568;2023-03-14T00:21:08;11.50;99.90
14079;DHT22;7115;50.150;8.568;2023-03-14T00:23:36;11.40;99.90
14079;DHT22;7115;50.150;8.568;2023-03-14T00:26:05;11.40;99.90
14079;DHT22;7115;50.150;8.568;2023-03-14T00:28:34;11.40;99.90
14079;DHT22;7115;50.150;8.568;2023-03-14T00:31:02;11.40;99.90
14079;DHT22;7115;50.150;8.568;2023-03-14T00:33:29;11.40;99.90
14079;DHT22;7115;50.150;8.568;2023-03-14T00:35:58;11.30;99.90
14079;DHT22;7115;50.150;8.568;2023-03-14T00:38:26;11.30;99.90
14079;DHT22;7115;50.150;8.568;2023-03-14T00:40:53;11.30;99.90
14079;DHT22;7115;50.150;8.568;2023-03-14T00:43:20;11.30;99.90
14079;DHT22;7115;50.150;8.568;2023-03-14T00:45:52;11.30;99.90
14079;DHT22;7115;50.150;8.568;2023-03-14T00:48:19;11.30;99.90
14079;DHT22;7115;50.150;8.568;2023-03-14T00:50:47;11.40;99.90
14079;DHT22;7115;50.150;8.568;2023-03-14T00:53:14;11.40;99.90
14079;DHT22;7115;50.150;8.568;2023-03-14T00:55:42;11.60;99.90
14079;DHT22;7115;50.150;8.568;2023-03-14T00:58:11;11.50;99.90
14079;DHT22;7115;50.150;8.568;2023-03-14T01:00:38;11.50;99.90
14079;DHT22;7115;50.150;8.568;2023-03-14T01:03:08;11.50;99.90
14079;DHT22;7115;50.150;8.568;2023-03-14T01:05:36;11.50;99.90
14079;DHT22;7115;50.150;8.568;2023-03-14T01:08:05;11.50;99.90
14079;DHT22;7115;50.150;8.568;2023-03-14T01:10:33;11.50;99.90
14079;DHT22;7115;50.150;8.568;2023-03-14T01:13:00;11.40;99.90
14079;DHT22;7115;50.150;8.568;2023-03-14T01:15:27;11.40;99.90
14079;DHT22;7115;50.150;8.568;2023-03-14T01:21:00;11.40;99.90
14079;DHT22;7115;50.150;8.568;2023-03-14T01:23:27;11.40;99.90
14079;DHT22;7115;50.150;8.568;2023-03-14T01:25:53;11.40;99.90
14079;DHT22;7115;50.150;8.568;2023-03-14T01:28:20;11.40;99.90
14079;DHT22;7115;50.150;8.568;2023-03-14T01:30:47;11.40;99.90
14079;DHT22;7115;50.150;8.568;2023-03-14T01:33:14;11.40;99.90
14079;DHT22;7115;50.150;8.568;2023-03-14T01:35:41;11.40;99.90
14079;DHT22;7115;50.150;8.568;2023-03-14T01:38:09;11.40;99.90
14079;DHT22;7115;50.150;8.568;2023-03-14T01:40:42;11.40;99.90
14079;DHT22;7115;50.150;8.568;2023-03-14T01:43:14;11.40;99.90
14079;DHT22;7115;50.150;8.568;2023-03-14T01:46:12;11.50;99.90
14079;DHT22;7115;50.150;8.568;2023-03-14T01:48:44;11.50;99.90
14079;DHT22;7115;50.150;8.568;2023-03-14T01:51:14;11.60;99.90
14079;DHT22;7115;50.150;8.568;2023-03-14T01:53:45;11.60;99.90
14079;DHT22;7115;50.150;8.568;2023-03-14T01:56:14;11.50;99.90
14079;DHT22;7115;50.150;8.568;2023-03-14T01:58:44;11.60;99.90
14079;DHT22;7115;50.150;8.568;2023-03-14T02:01:12;11.50;99.90
14079;DHT22;7115;50.150;8.568;2023-03-14T02:03:46;11.50;99.90
14079;DHT22;7115;50.150;8.568;2023-03-14T02:06:14;11.60;99.90
14079;DHT22;7115;50.150;8.568;2023-03-14T02:08:45;11.50;99.90
14079;DHT22;7115;50.150;8.568;2023-03-14T02:11:15;11.60;99.90
14079;DHT22;7115;50.150;8.568;2023-03-14T02:13:44;11.50;99.90
14079;DHT22;7115;50.150;8.568;2023-03-14T02:16:11;11.50;99.90
14079;DHT22;7115;50.150;8.568;2023-03-14T02:18:39;11.50;99.90
14079;DHT22;7115;50.150;8.568;2023-03-14T02:21:13;11.40;99.90
14079;DHT22;7115;50.150;8.568;2023-03-14T02:23:47;11.50;99.90
14079;DHT22;7115;50.150;8.568;2023-03-14T02:26:18;11.50;99.90
14079;DHT22;7115;50.150;8.568;2023-03-14T02:28:47;11.50;99.90
14079;DHT22;7115;50.150;8.568;2023-03-14T02:31:15;11.50;99.90
14079;DHT22;7115;50.150;8.568;2023-03-14T02:33:43;11.60;99.90
14079;DHT22;7115;50.150;8.568;2023-03-14T02:36:12;11.50;99.90
14079;DHT22;7115;50.150;8.568;2023-03-14T02:38:44;11.50;99.90
14079;DHT22;7115;50.150;8.568;2023-03-14T02:41:12;11.60;99.90
14079;DHT22;7115;50.150;8.568;2023-03-14T02:43:39;11.50;99.90
14079;DHT22;7115;50.150;8.568;2023-03-14T02:46:09;11.60;99.90
14079;DHT22;7115;50.150;8.568;2023-03-14T02:48:40;11.60;99.90
14079;DHT22;7115;50.150;8.568;2023-03-14T02:51:07;11.60;99.90
14079;DHT22;7115;50.150;8.568;2023-03-14T02:53:36;11.70;99.90
14079;DHT22;7115;50.150;8.568;2023-03-14T02:56:04;11.70;99.90
14079;DHT22;7115;50.150;8.568;2023-03-14T02:58:31;11.70;99.90
14079;DHT22;7115;50.150;8.568;2023-03-14T03:00:58;11.70;99.90
14079;DHT22;7115;50.150;8.568;2023-03-14T03:03:26;11.70;99.90
14079;DHT22;7115;50.150;8.568;2023-03-14T03:05:55;11.70;99.90
14079;DHT22;7115;50.150;8.568;2023-03-14T03:08:24;11.70;99.90
14079;DHT22;7115;50.150;8.568;2023-03-14T03:10:51;11.70;99.90
14079;DHT22;7115;50.150;8.568;2023-03-14T03:13:18;11.60;99.90
14079;DHT22;7115;50.150;8.568;2023-03-14T03:15:45;11.60;99.90
14079;DHT22;7115;50.150;8.568;2023-03-14T03:18:12;11.60;99.90
14079;DHT22;7115;50.150;8.568;2023-03-14T03:20:40;11.60;99.90
14079;DHT22;7115;50.150;8.568;2023-03-14T03:23:07;11.50;99.90
14079;DHT22;7115;50.150;8.568;2023-03-14T03:25:34;11.50;99.90
14079;DHT22;7115;50.150;8.568;2023-03-14T03:28:01;11.50;99.90
14079;DHT22;7115;50.150;8.568;2023-03-14T03:30:28;11.50;99.90
14079;DHT22;7115;50.150;8.568;2023-03-14T03:32:55;11.50;99.90
14079;DHT22;7115;50.150;8.568;2023-03-14T03:35:22;11.50;99.90
14079;DHT22;7115;50.150;8.568;2023-03-14T03:37:50;11.50;99.90
14079;DHT22;7115;50.150;8.568;2023-03-14T03:40:17;11.50;99.90
14079;DHT22;7115;50.150;8.568;2023-03-14T03:42:44;11.40;99.90
14079;DHT22;7115;50.150;8.568;2023-03-14T03:45:11;11.40;99.90
14079;DHT22;7115;50.150;8.568;2023-03-14T03:47:38;11.40;99.90
14079;DHT22;7115;50.150;8.568;2023-03-14T03:50:06;11.40;99.90
14079;DHT22;7115;50.150;8.568;2023-03-14T03:52:33;11.40;99.90
14079;DHT22;7115;50.150;8.568;2023-03-14T03:55:01;11.30;99.90
14079;DHT22;7115;50.150;8.568;2023-03-14T03:57:28;11.40;99.90
14079;DHT22;7115;50.150;8.568;2023-03-14T03:59:55;11.40;99.90
14079;DHT22;7115;50.150;8.568;2023-03-14T04:02:21;11.40;99.90
14079;DHT22;7115;50.150;8.568;2023-03-14T04:04:49;11.30;99.90
14079;DHT22;7115;50.150;8.568;2023-03-14T04:07:16;11.40;99.90
14079;DHT22;7115;50.150;8.568;2023-03-14T04:09:43;11.40;99.90
14079;DHT22;7115;50.150;8.568;2023-03-14T04:12:11;11.40;99.90
14079;DHT22;7115;50.150;8.568;2023-03-14T04:14:39;11.40;99.90
14079;DHT22;7115;50.150;8.568;2023-03-14T04:17:08;11.40;99.90
14079;DHT22;7115;50.150;8.568;2023-03-14T04:19:34;11.40;99.90
14079;DHT22;7115;50.150;8.568;2023-03-14T04:22:01;11.40;99.90
14079;DHT22;7115;50.150;8.568;2023-03-14T04:24:28;11.40;99.90
14079;DHT22;7115;50.150;8.568;2023-03-14T04:26:55;11.40;99.90
14079;DHT22;7115;50.150;8.568;2023-03-14T04:29:23;11.40;99.90
14079;DHT22;7115;50.150;8.568;2023-03-14T04:31:50;11.40;99.90
14079;DHT22;7115;50.150;8.568;2023-03-14T04:34:17;11.40;99.90
14079;DHT22;7115;50.150;8.568;2023-03-14T04:36:44;11.40;99.90
14079;DHT22;7115;50.150;8.568;2023-03-14T04:39:10;11.40;99.90
14079;DHT22;7115;50.150;8.568;2023-03-14T04:41:37;11.40;99.90
14079;DHT22;7115;50.150;8.568;2023-03-14T04:44:04;11.40;99.90
14079;DHT22;7115;50.150;8.568;2023-03-14T04:46:32;11.40;99.90
14079;DHT22;7115;50.150;8.568;2023-03-14T04:48:59;11.30;99.90
14079;DHT22;7115;50.150;8.568;2023-03-14T04:51:26;11.30;99.90
14079;DHT22;7115;50.150;8.568;2023-03-14T04:53:54;11.30;99.90
14079;DHT22;7115;50.150;8.568;2023-03-14T04:56:21;11.30;99.90
14079;DHT22;7115;50.150;8.568;2023-03-14T04:58:48;11.30;99.90
14079;DHT22;7115;50.150;8.568;2023-03-14T05:01:15;11.30;99.90
14079;DHT22;7115;50.150;8.568;2023-03-14T05:03:43;11.30;99.90
14079;DHT22;7115;50.150;8.568;2023-03-14T05:06:10;11.30;99.90
14079;DHT22;7115;50.150;8.568;2023-03-14T05:08:37;11.30;99.90
14079;DHT22;7115;50.150;8.568;2023-03-14T05:11:04;11.30;99.90
14079;DHT22;7115;50.150;8.568;2023-03-14T05:13:31;11.30;99.90
14079;DHT22;7115;50.150;8.568;2023-03-14T05:16:04;11.40;99.90
14079;DHT22;7115;50.150;8.568;2023-03-14T05:18:31;11.40;99.90
14079;DHT22;7115;50.150;8.568;2023-03-14T05:20:59;11.40;99.90
14079;DHT22;7115;50.150;8.568;2023-03-14T05:23:27;11.30;99.90
14079;DHT22;7115;50.150;8.568;2023-03-14T05:25:54;11.30;99.90
14079;DHT22;7115;50.150;8.568;2023-03-14T05:28:20;11.30;99.90
14079;DHT22;7115;50.150;8.568;2023-03-14T05:30:48;11.40;99.90
14079;DHT22;7115;50.150;8.568;2023-03-14T05:33:15;11.30;99.90
14079;DHT22;7115;50.150;8.568;2023-03-14T05:35:42;11.30;99.90
14079;DHT22;7115;50.150;8.568;2023-03-14T05:38:10;11.30;99.90
14079;DHT22;7115;50.150;8.568;2023-03-14T05:40:37;11.40;99.90
14079;DHT22;7115;50.150;8.568;2023-03-14T05:43:04;11.40;99.90
14079;DHT22;7115;50.150;8.568;2023-03-14T05:45:34;11.30;99.90
14079;DHT22;7115;50.150;8.568;2023-03-14T05:48:02;11.30;99.90
14079;DHT22;7115;50.150;8.568;2023-03-14T05:50:29;11.30;99.90
14079;DHT22;7115;50.150;8.568;2023-03-14T05:52:56;11.30;99.90
14079;DHT22;7115;50.150;8.568;2023-03-14T05:55:24;11.30;99.90
14079;DHT22;7115;50.150;8.568;2023-03-14T05:57:52;11.30;99.90
14079;DHT22;7115;50.150;8.568;2023-03-14T06:00:20;11.30;99.90
14079;DHT22;7115;50.150;8.568;2023-03-14T06:02:47;11.20;99.90
14079;DHT22;7115;50.150;8.568;2023-03-14T06:05:14;11.20;99.90
14079;DHT22;7115;50.150;8.568;2023-03-14T06:07:41;11.30;99.90
14079;DHT22;7115;50.150;8.568;2023-03-14T06:10:09;11.30;99.90
14079;DHT22;7115;50.150;8.568;2023-03-14T06:12:37;11.30;99.90
14079;DHT22;7115;50.150;8.568;2023-03-14T06:15:05;11.30;99.90
14079;DHT22;7115;50.150;8.568;2023-03-14T06:17:32;11.30;99.90
14079;DHT22;7115;50.150;8.568;2023-03-14T06:19:59;11.30;99.90
14079;DHT22;7115;50.150;8.568;2023-03-14T06:22:26;11.30;99.90
14079;DHT22;7115;50.150;8.568;2023-03-14T06:24:52;11.30;99.90
14079;DHT22;7115;50.150;8.568;2023-03-14T06:27:19;11.30;99.90
14079;DHT22;7115;50.150;8.568;2023-03-14T06:29:47;11.30;99.90
14079;DHT22;7115;50.150;8.568;2023-03-14T06:32:14;11.30;99.90
14079;DHT22;7115;50.150;8.568;2023-03-14T06:34:41;11.30;99.90
14079;DHT22;7115;50.150;8.568;2023-03-14T06:37:08;11.30;99.90
14079;DHT22;7115;50.150;8.568;2023-03-14T06:39:35;11.30;99.90
14079;DHT22;7115;50.150;8.568;2023-03-14T06:42:02;11.40;99.90
14079;DHT22;7115;50.150;8.568;2023-03-14T06:44:29;11.30;99.90
14079;DHT22;7115;50.150;8.568;2023-03-14T06:46:57;11.30;99.90
14079;DHT22;7115;50.150;8.568;2023-03-14T06:49:24;11.30;99.90
14079;DHT22;7115;50.150;8.568;2023-03-14T06:51:51;11.30;99.90
14079;DHT22;7115;50.150;8.568;2023-03-14T06:54:18;11.30;99.90
14079;DHT22;7115;50.150;8.568;2023-03-14T06:56:45;11.30;99.90
14079;DHT22;7115;50.150;8.568;2023-03-14T06:59:12;11.30;99.90
14079;DHT22;7115;50.150;8.568;2023-03-14T07:01:39;11.40;99.90
14079;DHT22;7115;50.150;8.568;2023-03-14T07:04:08;11.30;99.90
14079;DHT22;7115;50.150;8.568;2023-03-14T07:06:35;11.30;99.90
14079;DHT22;7115;50.150;8.568;2023-03-14T07:09:03;11.40;99.90
14079;DHT22;7115;50.150;8.568;2023-03-14T07:11:29;11.30;99.90
14079;DHT22;7115;50.150;8.568;2023-03-14T07:13:56;11.30;99.90
14079;DHT22;7115;50.150;8.568;2023-03-14T07:16:23;11.40;99.90
14079;DHT22;7115;50.150;8.568;2023-03-14T07:18:50;11.40;99.90
14079;DHT22;7115;50.150;8.568;2023-03-14T07:21:20;11.40;99.90
14079;DHT22;7115;50.150;8.568;2023-03-14T07:23:46;11.40;99.90
14079;DHT22;7115;50.150;8.568;2023-03-14T07:26:13;11.40;99.90
14079;DHT22;7115;50.150;8.568;2023-03-14T07:28:40;11.40;99.90
14079;DHT22;7115;50.150;8.568;2023-03-14T07:31:07;11.40;99.90
14079;DHT22;7115;50.150;8.568;2023-03-14T07:33:34;11.40;99.90
14079;DHT22;7115;50.150;8.568;2023-03-14T07:36:02;11.40;99.90
14079;DHT22;7115;50.150;8.568;2023-03-14T07:38:31;11.40;99.90
14079;DHT22;7115;50.150;8.568;2023-03-14T07:40:59;11.40;99.90
14079;DHT22;7115;50.150;8.568;2023-03-14T07:43:26;11.50;99.90
14079;DHT22;7115;50.150;8.568;2023-03-14T07:45:53;11.50;99.90
14079;DHT22;7115;50.150;8.568;2023-03-14T07:48:25;11.50;99.90
14079;DHT22;7115;50.150;8.568;2023-03-14T07:50:54;11.50;99.90
14079;DHT22;7115;50.150;8.568;2023-03-14T07:53:22;11.40;99.90
14079;DHT22;7115;50.150;8.568;2023-03-14T07:55:51;11.40;99.90
14079;DHT22;7115;50.150;8.568;2023-03-14T07:58:19;11.40;99.90
14079;DHT22;7115;50.150;8.568;2023-03-14T08:00:46;11.40;99.90
14079;DHT22;7115;50.150;8.568;2023-03-14T08:03:13;11.40;99.90
14079;DHT22;7115;50.150;8.568;2023-03-14T08:05:40;11.40;99.90
14079;DHT22;7115;50.150;8.568;2023-03-14T08:08:08;11.40;99.90
14079;DHT22;7115;50.150;8.568;2023-03-14T08:10:35;11.40;99.90
14079;DHT22;7115;50.150;8.568;2023-03-14T08:13:03;11.50;99.90
14079;DHT22;7115;50.150;8.568;2023-03-14T08:15:30;11.40;99.90
14079;DHT22;7115;50.150;8.568;2023-03-14T08:17:58;11.40;99.90
14079;DHT22;7115;50.150;8.568;2023-03-14T08:20:26;11.40;99.90
14079;DHT22;7115;50.150;8.568;2023-03-14T08:22:55;11.40;99.90
14079;DHT22;7115;50.150;8.568;2023-03-14T08:25:22;11.40;99.90
14079;DHT22;7115;50.150;8.568;2023-03-14T08:27:49;11.30;99.90
14079;DHT22;7115;50.150;8.568;2023-03-14T08:30:19;11.30;99.90
14079;DHT22;7115;50.150;8.568;2023-03-14T08:32:46;11.30;99.90
14079;DHT22;7115;50.150;8.568;2023-03-14T08:35:14;11.40;99.90
14079;DHT22;7115;50.150;8.568;2023-03-14T08:37:41;11.30;99.90
14079;DHT22;7115;50.150;8.568;2023-03-14T08:40:09;11.30;99.90
14079;DHT22;7115;50.150;8.568;2023-03-14T08:42:40;11.40;99.90
14079;DHT22;7115;50.150;8.568;2023-03-14T08:45:08;11.30;99.90
14079;DHT22;7115;50.150;8.568;2023-03-14T08:47:37;11.10;99.90
14079;DHT22;7115;50.150;8.568;2023-03-14T08:50:05;11.40;99.90
14079;DHT22;7115;50.150;8.568;2023-03-14T08:52:32;11.40;99.90
14079;DHT22;7115;50.150;8.568;2023-03-14T08:54:59;11.40;99.90
14079;DHT22;7115;50.150;8.568;2023-03-14T08:57:27;11.50;99.90
14079;DHT22;7115;50.150;8.568;2023-03-14T08:59:54;11.50;99.90
14079;DHT22;7115;50.150;8.568;2023-03-14T09:02:22;11.60;99.90
14079;DHT22;7115;50.150;8.568;2023-03-14T09:04:51;11.60;99.90
14079;DHT22;7115;50.150;8.568;2023-03-14T09:07:18;11.60;99.90
14079;DHT22;7115;50.150;8.568;2023-03-14T09:09:45;11.60;99.90
14079;DHT22;7115;50.150;8.568;2023-03-14T09:12:13;11.70;99.90
14079;DHT22;7115;50.150;8.568;2023-03-14T09:14:39;11.70;99.90
14079;DHT22;7115;50.150;8.568;2023-03-14T09:17:06;11.70;99.90
14079;DHT22;7115;50.150;8.568;2023-03-14T09:19:34;11.80;99.90
14079;DHT22;7115;50.150;8.568;2023-03-14T09:22:02;11.80;99.90
14079;DHT22;7115;50.150;8.568;2023-03-14T09:24:29;11.90;99.90
14079;DHT22;7115;50.150;8.568;2023-03-14T09:26:57;11.90;99.90
14079;DHT22;7115;50.150;8.568;2023-03-14T09:29:24;11.90;99.90
14079;DHT22;7115;50.150;8.568;2023-03-14T09:31:51;11.90;99.90
14079;DHT22;7115;50.150;8.568;2023-03-14T09:34:18;11.90;99.90
14079;DHT22;7115;50.150;8.568;2023-03-14T09:36:45;11.80;99.90
14079;DHT22;7115;50.150;8.568;2023-03-14T09:39:14;11.90;99.90
14079;DHT22;7115;50.150;8.568;2023-03-14T09:41:42;11.80;99.90
14079;DHT22;7115;50.150;8.568;2023-03-14T09:44:13;11.80;99.90
14079;DHT22;7115;50.150;8.568;2023-03-14T09:46:43;11.80;99.90
14079;DHT22;7115;50.150;8.568;2023-03-14T09:49:14;11.80;99.90
14079;DHT22;7115;50.150;8.568;2023-03-14T09:51:45;11.70;99.90
14079;DHT22;7115;50.150;8.568;2023-03-14T09:54:24;11.70;99.90
14079;DHT22;7115;50.150;8.568;2023-03-14T09:56:54;11.60;99.90
14079;DHT22;7115;50.150;8.568;2023-03-14T09:59:21;11.60;99.90
14079;DHT22;7115;50.150;8.568;2023-03-14T10:01:48;11.60;99.90
14079;DHT22;7115;50.150;8.568;2023-03-14T10:04:18;11.60;99.90
14079;DHT22;7115;50.150;8.568;2023-03-14T10:06:47;11.60;99.90
14079;DHT22;7115;50.150;8.568;2023-03-14T10:09:20;11.60;99.90
14079;DHT22;7115;50.150;8.568;2023-03-14T10:11:54;11.70;99.90
14079;DHT22;7115;50.150;8.568;2023-03-14T10:14:32;11.80;99.90
14079;DHT22;7115;50.150;8.568;2023-03-14T10:17:07;11.80;99.90
14079;DHT22;7115;50.150;8.568;2023-03-14T10:19:36;11.90;99.90
14079;DHT22;7115;50.150;8.568;2023-03-14T10:22:04;12.00;99.90
14079;DHT22;7115;50.150;8.568;2023-03-14T10:24:34;12.00;99.90
14079;DHT22;7115;50.150;8.568;2023-03-14T10:27:04;12.00;99.90
14079;DHT22;7115;50.150;8.568;2023-03-14T10:29:32;12.10;99.90
14079;DHT22;7115;50.150;8.568;2023-03-14T10:32:00;12.10;99.90
14079;DHT22;7115;50.150;8.568;2023-03-14T10:34:30;12.20;99.90
14079;DHT22;7115;50.150;8.568;2023-03-14T10:36:58;12.10;99.90
14079;DHT22;7115;50.150;8.568;2023-03-14T10:39:29;12.20;99.90
14079;DHT22;7115;50.150;8.568;2023-03-14T10:42:05;12.20;99.90
14079;DHT22;7115;50.150;8.568;2023-03-14T10:44:34;12.10;99.90
14079;DHT22;7115;50.150;8.568;2023-03-14T10:47:03;12.10;99.90
14079;DHT22;7115;50.150;8.568;2023-03-14T10:49:32;12.00;99.90
14079;DHT22;7115;50.150;8.568;2023-03-14T10:52:13;12.00;99.90
14079;DHT22;7115;50.150;8.568;2023-03-14T10:54:41;12.00;99.90
14079;DHT22;7115;50.150;8.568;2023-03-14T10:57:12;12.00;99.90
14079;DHT22;7115;50.150;8.568;2023-03-14T10:59:41;12.00;99.90
14079;DHT22;7115;50.150;8.568;2023-03-14T11:02:20;11.90;99.90
14079;DHT22;7115;50.150;8.568;2023-03-14T11:04:59;12.00;99.90
14079;DHT22;7115;50.150;8.568;2023-03-14T11:07:35;11.90;99.90
14079;DHT22;7115;50.150;8.568;2023-03-14T11:10:11;11.90;99.90
14079;DHT22;7115;50.150;8.568;2023-03-14T11:12:49;11.80;99.90
14079;DHT22;7115;50.150;8.568;2023-03-14T11:15:23;11.70;99.90
14079;DHT22;7115;50.150;8.568;2023-03-14T11:18:06;11.60;99.90
14079;DHT22;7115;50.150;8.568;2023-03-14T11:20:41;11.60;99.90
14079;DHT22;7115;50.150;8.568;2023-03-14T11:23:13;11.50;99.90
14079;DHT22;7115;50.150;8.568;2023-03-14T11:25:46;11.40;99.90
14079;DHT22;7115;50.150;8.568;2023-03-14T11:28:22;11.50;99.90
14079;DHT22;7115;50.150;8.568;2023-03-14T11:30:53;11.40;99.90
14079;DHT22;7115;50.150;8.568;2023-03-14T11:33:24;11.40;99.90
14079;DHT22;7115;50.150;8.568;2023-03-14T11:35:58;11.40;99.90
14079;DHT22;7115;50.150;8.568;2023-03-14T11:38:34;11.40;99.90
14079;DHT22;7115;50.150;8.568;2023-03-14T11:41:04;11.40;99.90
14079;DHT22;7115;50.150;8.568;2023-03-14T11:43:39;11.40;99.90
14079;DHT22;7115;50.150;8.568;2023-03-14T11:46:14;11.50;99.90
14079;DHT22;7115;50.150;8.568;2023-03-14T11:48:45;11.60;99.90
14079;DHT22;7115;50.150;8.568;2023-03-14T11:51:21;11.60;99.90
14079;DHT22;7115;50.150;8.568;2023-03-14T11:53:55;11.60;99.90
14079;DHT22;7115;50.150;8.568;2023-03-14T11:56:29;11.70;99.90
14079;DHT22;7115;50.150;8.568;2023-03-14T11:59:03;11.70;99.90
14079;DHT22;7115;50.150;8.568;2023-03-14T12:01:50;11.90;99.90
14079;DHT22;7115;50.150;8.568;2023-03-14T12:04:25;11.90;99.90
14079;DHT22;7115;50.150;8.568;2023-03-14T12:07:03;11.90;99.90
14079;DHT22;7115;50.150;8.568;2023-03-14T12:09:32;11.80;99.90
14079;DHT22;7115;50.150;8.568;2023-03-14T12:12:04;11.60;99.90
14079;DHT22;7115;50.150;8.568;2023-03-14T12:14:35;11.40;99.90
14079;DHT22;7115;50.150;8.568;2023-03-14T12:17:06;11.20;99.90
14079;DHT22;7115;50.150;8.568;2023-03-14T12:19:37;11.00;99.90
14079;DHT22;7115;50.150;8.568;2023-03-14T12:22:18;10.90;99.90
14079;DHT22;7115;50.150;8.568;2023-03-14T12:24:50;10.70;99.90
14079;DHT22;7115;50.150;8.568;2023-03-14T12:27:41;10.50;99.90
14079;DHT22;7115;50.150;8.568;2023-03-14T12:30:27;10.40;99.90
14079;DHT22;7115;50.150;8.568;2023-03-14T12:33:19;10.50;99.90
14079;DHT22;7115;50.150;8.568;2023-03-14T12:35:47;10.50;99.90
14079;DHT22;7115;50.150;8.568;2023-03-14T12:38:20;10.70;99.90
14079;DHT22;7115;50.150;8.568;2023-03-14T12:40:54;10.80;99.90
14079;DHT22;7115;50.150;8.568;2023-03-14T12:43:25;10.90;99.90
14079;DHT22;7115;50.150;8.568;2023-03-14T12:46:19;11.10;99.90
14079;DHT22;7115;50.150;8.568;2023-03-14T12:48:47;11.30;99.90
14079;DHT22;7115;50.150;8.568;2023-03-14T12:51:17;11.50;99.90
14079;DHT22;7115;50.150;8.568;2023-03-14T12:57:21;11.80;99.90
14079;DHT22;7115;50.150;8.568;2023-03-14T12:59:55;11.90;99.90
14079;DHT22;7115;50.150;8.568;2023-03-14T13:02:28;11.90;99.90
14079;DHT22;7115;50.150;8.568;2023-03-14T13:05:05;11.90;99.90
14079;DHT22;7115;50.150;8.568;2023-03-14T13:08:02;11.90;99.90
14079;DHT22;7115;50.150;8.568;2023-03-14T13:10:29;11.90;99.90
14079;DHT22;7115;50.150;8.568;2023-03-14T13:13:15;12.00;99.90
14079;DHT22;7115;50.150;8.568;2023-03-14T13:15:46;12.00;99.90
14079;DHT22;7115;50.150;8.568;2023-03-14T13:18:17;12.10;99.90
14079;DHT22;7115;50.150;8.568;2023-03-14T13:20:48;12.20;99.90
14079;DHT22;7115;50.150;8.568;2023-03-14T13:23:20;12.20;99.90
14079;DHT22;7115;50.150;8.568;2023-03-14T13:25:47;12.30;99.90
14079;DHT22;7115;50.150;8.568;2023-03-14T13:28:16;12.30;99.90
14079;DHT22;7115;50.150;8.568;2023-03-14T13:30:44;12.40;99.90
14079;DHT22;7115;50.150;8.568;2023-03-14T13:33:13;12.50;99.90
14079;DHT22;7115;50.150;8.568;2023-03-14T13:35:43;12.50;99.90
14079;DHT22;7115;50.150;8.568;2023-03-14T13:38:19;12.50;99.90
14079;DHT22;7115;50.150;8.568;2023-03-14T13:40:47;12.40;99.90
14079;DHT22;7115;50.150;8.568;2023-03-14T13:43:18;12.40;99.90
14079;DHT22;7115;50.150;8.568;2023-03-14T13:45:49;12.50;99.90
14079;DHT22;7115;50.150;8.568;2023-03-14T13:48:18;12.50;99.90
14079;DHT22;7115;50.150;8.568;2023-03-14T13:50:50;12.60;99.90
14079;DHT22;7115;50.150;8.568;2023-03-14T13:53:18;12.50;99.90
14079;DHT22;7115;50.150;8.568;2023-03-14T13:55:45;12.40;99.90
14079;DHT22;7115;50.150;8.568;2023-03-14T13:58:20;12.20;99.90
14079;DHT22;7115;50.150;8.568;2023-03-14T14:01:03;12.20;99.90
14079;DHT22;7115;50.150;8.568;2023-03-14T14:03:33;12.00;99.90
14079;DHT22;7115;50.150;8.568;2023-03-14T14:06:02;11.90;99.90
14079;DHT22;7115;50.150;8.568;2023-03-14T14:08:30;11.90;99.90
14079;DHT22;7115;50.150;8.568;2023-03-14T14:10:59;11.80;99.90
14079;DHT22;7115;50.150;8.568;2023-03-14T14:13:32;11.90;99.90
14079;DHT22;7115;50.150;8.568;2023-03-14T14:16:00;12.00;99.90
14079;DHT22;7115;50.150;8.568;2023-03-14T14:18:28;12.10;99.90
14079;DHT22;7115;50.150;8.568;2023-03-14T14:20:57;12.30;99.90
14079;DHT22;7115;50.150;8.568;2023-03-14T14:23:27;12.50;99.90
14079;DHT22;7115;50.150;8.568;2023-03-14T14:25:57;12.70;99.90
14079;DHT22;7115;50.150;8.568;2023-03-14T14:28:26;12.70;99.90
14079;DHT22;7115;50.150;8.568;2023-03-14T14:31:02;12.20;99.90
14079;DHT22;7115;50.150;8.568;2023-03-14T14:33:38;11.70;99.90
14079;DHT22;7115;50.150;8.568;2023-03-14T14:36:18;11.20;99.90
14079;DHT22;7115;50.150;8.568;2023-03-14T14:38:58;11.00;99.90
14079;DHT22;7115;50.150;8.568;2023-03-14T14:41:30;10.80;99.90
14079;DHT22;7115;50.150;8.568;2023-03-14T14:43:58;10.70;99.90
14079;DHT22;7115;50.150;8.568;2023-03-14T14:46:28;10.70;99.90
14079;DHT22;7115;50.150;8.568;2023-03-14T14:48:56;10.60;99.90
14079;DHT22;7115;50.150;8.568;2023-03-14T14:51:26;10.60;99.90
14079;DHT22;7115;50.150;8.568;2023-03-14T14:54:04;10.60;99.90
14079;DHT22;7115;50.150;8.568;2023-03-14T14:56:37;10.60;99.90
14079;DHT22;7115;50.150;8.568;2023-03-14T14:59:05;10.50;99.90
14079;DHT22;7115;50.150;8.568;2023-03-14T15:01:36;10.50;99.90
14079;DHT22;7115;50.150;8.568;2023-03-14T15:04:09;10.40;99.90
14079;DHT22;7115;50.150;8.568;2023-03-14T15:06:37;10.40;99.90
14079;DHT22;7115;50.150;8.568;2023-03-14T15:09:08;10.30;99.90
14079;DHT22;7115;50.150;8.568;2023-03-14T15:11:35;10.30;99.90
14079;DHT22;7115;50.150;8.568;2023-03-14T15:14:02;10.30;99.90
14079;DHT22;7115;50.150;8.568;2023-03-14T15:16:31;10.20;99.90
14079;DHT22;7115;50.150;8.568;2023-03-14T15:19:00;10.10;99.90
14079;DHT22;7115;50.150;8.568;2023-03-14T15:21:40;10.10;99.90
14079;DHT22;7115;50.150;8.568;2023-03-14T15:24:10;10.00;99.90
14079;DHT22;7115;50.150;8.568;2023-03-14T15:26:37;9.90;99.90
14079;DHT22;7115;50.150;8.568;2023-03-14T15:29:04;9.90;99.90
14079;DHT22;7115;50.150;8.568;2023-03-14T15:31:35;9.90;99.90
14079;DHT22;7115;50.150;8.568;2023-03-14T15:34:02;9.80;99.90
14079;DHT22;7115;50.150;8.568;2023-03-14T15:36:31;9.80;99.90
14079;DHT22;7115;50.150;8.568;2023-03-14T15:38:59;9.80;99.90
14079;DHT22;7115;50.150;8.568;2023-03-14T15:41:28;9.80;99.90
14079;DHT22;7115;50.150;8.568;2023-03-14T15:43:55;9.80;99.90
14079;DHT22;7115;50.150;8.568;2023-03-14T15:46:23;9.90;99.90
14079;DHT22;7115;50.150;8.568;2023-03-14T15:48:51;9.90;99.90
14079;DHT22;7115;50.150;8.568;2023-03-14T15:51:18;9.90;99.90
14079;DHT22;7115;50.150;8.568;2023-03-14T15:53:45;9.90;99.90
14079;DHT22;7115;50.150;8.568;2023-03-14T15:56:14;9.90;99.90
14079;DHT22;7115;50.150;8.568;2023-03-14T15:58:42;9.90;99.90
14079;DHT22;7115;50.150;8.568;2023-03-14T16:01:14;9.90;99.90
14079;DHT22;7115;50.150;8.568;2023-03-14T16:03:43;9.90;99.90
14079;DHT22;7115;50.150;8.568;2023-03-14T16:06:10;9.90;99.90
14079;DHT22;7115;50.150;8.568;2023-03-14T16:08:38;9.80;99.90